createdAt,value
2022-09-01T00:01:50.512Z,100.00
2022-09-01T00:04:58.446Z,100.00
2022-09-01T00:08:00.222Z,100.00
2022-09-01T00:11:01.806Z,100.00
2022-09-01T00:14:06.585Z,100.00
2022-09-01T00:17:22.362Z,100.00
2022-09-01T00:20:24.037Z,100.00
2022-09-01T00:23:26.493Z,100.00
2022-09-01T00:26:28.157Z,100.00
2022-09-01T00:29:29.729Z,100.00
2022-09-01T00:32:31.372Z,100.00
2022-09-01T00:35:36.802Z,100.00
2022-09-01T00:38:39.114Z,100.00
2022-09-01T00:41:44.994Z,100.00
2022-09-01T00:44:47.065Z,100.00
2022-09-01T00:47:48.837Z,100.00
2022-09-01T00:50:50.924Z,100.00
2022-09-01T00:53:56.642Z,100.00
2022-09-01T00:56:58.317Z,100.00
2022-09-01T01:00:01.198Z,100.00
2022-09-01T01:03:02.840Z,100.00
2022-09-01T01:06:08.350Z,100.00
2022-09-01T01:09:09.994Z,100.00
2022-09-01T01:12:18.525Z,100.00
2022-09-01T01:15:20.469Z,100.00
2022-09-01T01:18:23.461Z,100.00
2022-09-01T01:21:45.828Z,100.00
2022-09-01T01:24:47.904Z,100.00
2022-09-01T01:27:50.141Z,100.00
2022-09-01T01:30:53.595Z,100.00
2022-09-01T01:33:56.810Z,100.00
2022-09-01T01:36:59.962Z,100.00
2022-09-01T01:40:02.198Z,100.00
2022-09-01T01:43:04.861Z,100.00
2022-09-01T01:46:08.164Z,100.00
2022-09-01T01:49:20.096Z,100.00
2022-09-01T01:52:26.155Z,100.00
2022-09-01T01:55:29.124Z,100.00
2022-09-01T01:58:33.796Z,100.00
2022-09-01T02:01:36.583Z,100.00
2022-09-01T02:04:40.187Z,100.00
2022-09-01T02:07:45.570Z,100.00
2022-09-01T02:10:48.437Z,100.00
2022-09-01T02:13:50.036Z,100.00
2022-09-01T02:16:56.041Z,100.00
2022-09-01T02:19:58.378Z,100.00
2022-09-01T02:23:09.363Z,100.00
2022-09-01T02:26:16.646Z,100.00
2022-09-01T02:29:22.080Z,100.00
2022-09-01T02:32:23.756Z,100.00
2022-09-01T02:35:31.954Z,100.00
2022-09-01T02:38:34.541Z,100.00
2022-09-01T02:41:36.346Z,100.00
2022-09-01T02:44:41.399Z,100.00
2022-09-01T02:47:46.753Z,100.00
2022-09-01T02:50:49.393Z,100.00
2022-09-01T02:53:53.002Z,100.00
2022-09-01T02:56:54.919Z,100.00
2022-09-01T02:59:59.034Z,100.00
2022-09-01T03:03:01.693Z,100.00
2022-09-01T03:06:03.387Z,100.00
2022-09-01T03:09:06.541Z,100.00
2022-09-01T03:12:10.660Z,100.00
2022-09-01T03:15:13.290Z,100.00
2022-09-01T03:18:15.372Z,100.00
2022-09-01T03:21:17.238Z,100.00
2022-09-01T03:24:19.358Z,100.00
2022-09-01T03:27:21.600Z,100.00
2022-09-01T03:30:23.993Z,100.00
2022-09-01T03:33:26.390Z,100.00
2022-09-01T03:36:30.119Z,100.00
2022-09-01T03:39:31.713Z,100.00
2022-09-01T03:42:33.598Z,100.00
2022-09-01T03:45:38.535Z,100.00
2022-09-01T03:48:40.361Z,100.00
2022-09-01T03:51:44.339Z,100.00
2022-09-01T03:54:46.193Z,100.00
2022-09-01T03:57:47.856Z,100.00
2022-09-01T04:00:55.502Z,100.00
2022-09-01T04:03:58.048Z,100.00
2022-09-01T04:07:04.568Z,100.00
2022-09-01T04:10:06.334Z,100.00
2022-09-01T04:13:11.780Z,100.00
2022-09-01T04:16:59.919Z,100.00
2022-09-01T04:20:08.799Z,100.00
2022-09-01T04:23:11.105Z,100.00
2022-09-01T04:26:14.934Z,100.00
2022-09-01T04:29:19.437Z,100.00
2022-09-01T04:32:21.750Z,100.00
2022-09-01T04:35:33.014Z,100.00
2022-09-01T04:38:40.154Z,100.00
2022-09-01T04:41:42.706Z,100.00
2022-09-01T04:44:45.476Z,100.00
2022-09-01T04:47:47.837Z,100.00
2022-09-01T04:50:52.837Z,100.00
2022-09-01T04:54:00.480Z,100.00
2022-09-01T04:57:02.998Z,100.00
2022-09-01T05:00:22.340Z,100.00
2022-09-01T05:03:24.787Z,100.00
2022-09-01T05:06:46.219Z,100.00
2022-09-01T05:10:10.625Z,100.00
2022-09-01T05:13:23.679Z,100.00
2022-09-01T05:16:28.135Z,100.00
2022-09-01T05:19:31.638Z,100.00
2022-09-01T05:22:35.765Z,100.00
2022-09-01T05:25:42.021Z,100.00
2022-09-01T05:28:47.478Z,100.00
2022-09-01T05:31:50.602Z,100.00
2022-09-01T05:34:53.834Z,100.00
2022-09-01T05:37:55.876Z,100.00
2022-09-01T05:40:58.498Z,100.00
2022-09-01T05:44:00.949Z,100.00
2022-09-01T05:47:05.659Z,100.00
2022-09-01T05:50:14.279Z,100.00
2022-09-01T05:53:17.556Z,100.00
2022-09-01T05:56:22.511Z,100.00
2022-09-01T05:59:26.623Z,100.00
2022-09-01T06:02:57.978Z,100.00
2022-09-01T06:06:05.597Z,100.00
2022-09-01T06:09:09.018Z,100.00
2022-09-01T06:12:17.813Z,100.00
2022-09-01T06:15:21.031Z,100.00
2022-09-01T06:18:27.765Z,100.00
2022-09-01T06:21:32.802Z,100.00
2022-09-01T06:24:34.474Z,100.00
2022-09-01T06:27:41.238Z,100.00
2022-09-01T06:30:44.333Z,100.00
2022-09-01T06:33:47.516Z,100.00
2022-09-01T06:36:51.665Z,100.00
2022-09-01T06:39:54.644Z,100.00
2022-09-01T06:42:57.030Z,100.00
2022-09-01T06:46:01.041Z,100.00
2022-09-01T06:49:04.009Z,100.00
2022-09-01T06:52:05.822Z,100.00
2022-09-01T06:55:12.202Z,100.00
2022-09-01T06:58:15.971Z,100.00
2022-09-01T07:01:24.398Z,100.00
2022-09-01T07:04:29.353Z,100.00
2022-09-01T07:14:22.293Z,100.00
2022-09-01T07:17:25.380Z,100.00
2022-09-01T07:20:29.430Z,100.00
2022-09-01T07:26:54.003Z,100.00
2022-09-01T07:29:57.300Z,100.00
2022-09-01T07:33:41.695Z,100.00
2022-09-01T07:36:29.020Z,100.00
2022-09-01T07:39:48.866Z,100.00
2022-09-01T07:42:56.655Z,100.00
2022-09-01T07:43:22.976Z,100.00
2022-09-01T07:46:43.591Z,100.00
2022-09-01T07:50:12.194Z,100.00
2022-09-01T07:53:12.998Z,100.00
2022-09-01T07:56:15.506Z,100.00
2022-09-01T07:59:21.401Z,100.00
2022-09-01T08:02:38.559Z,100.00
2022-09-01T08:05:41.034Z,100.00
2022-09-01T08:08:43.024Z,100.00
2022-09-01T08:12:01.553Z,100.00
2022-09-01T08:15:38.020Z,100.00
2022-09-01T08:18:28.611Z,100.00
2022-09-01T08:21:30.319Z,100.00
2022-09-01T08:24:52.428Z,100.00
2022-09-01T08:28:01.916Z,100.00
2022-09-01T08:31:11.500Z,100.00
2022-09-01T08:34:14.198Z,100.00
2022-09-01T08:37:15.898Z,100.00
2022-09-01T08:40:19.249Z,100.00
2022-09-01T08:43:31.832Z,100.00
2022-09-01T08:46:35.886Z,100.00
2022-09-01T08:49:46.416Z,100.00
2022-09-01T08:53:12.786Z,100.00
2022-09-01T08:56:14.501Z,100.00
2022-09-01T08:59:17.603Z,100.00
2022-09-01T09:02:58.903Z,100.00
2022-09-01T09:06:04.238Z,100.00
2022-09-01T09:09:09.182Z,100.00
2022-09-01T09:12:17.482Z,100.00
2022-09-01T09:15:25.617Z,100.00
2022-09-01T09:18:39.171Z,100.00
2022-09-01T09:21:42.722Z,100.00
2022-09-01T09:25:03.210Z,100.00
2022-09-01T09:28:04.822Z,100.00
2022-09-01T09:31:25.277Z,100.00
2022-09-01T09:34:39.928Z,100.00
2022-09-01T09:37:41.575Z,100.00
2022-09-01T09:41:16.102Z,100.00
2022-09-01T09:44:27.014Z,100.00
2022-09-01T09:47:43.469Z,100.00
2022-09-01T09:50:45.985Z,100.00
2022-09-01T09:53:47.912Z,100.00
2022-09-01T09:56:50.485Z,100.00
2022-09-01T09:59:59.261Z,100.00
2022-09-01T10:03:08.941Z,100.00
2022-09-01T10:06:30.560Z,100.00
2022-09-01T10:09:32.232Z,100.00
2022-09-01T10:12:33.913Z,100.00
2022-09-01T10:15:36.194Z,100.00
2022-09-01T10:18:39.040Z,100.00
2022-09-01T10:21:43.280Z,100.00
2022-09-01T10:24:45.981Z,100.00
2022-09-01T10:28:03.887Z,100.00
2022-09-01T10:31:09.027Z,100.00
2022-09-01T10:34:20.634Z,100.00
2022-09-01T10:37:23.307Z,100.00
2022-09-01T10:40:31.082Z,100.00
2022-09-01T10:43:38.443Z,100.00
2022-09-01T10:46:50.435Z,100.00
2022-09-01T10:49:52.745Z,100.00
2022-09-01T10:52:55.961Z,100.00
2022-09-01T10:56:18.759Z,100.00
2022-09-01T10:59:35.632Z,100.00
2022-09-01T11:02:46.581Z,100.00
2022-09-01T11:06:11.022Z,100.00
2022-09-01T11:09:18.187Z,100.00
2022-09-01T11:12:31.625Z,100.00
2022-09-01T11:15:36.287Z,100.00
2022-09-01T11:18:38.057Z,100.00
2022-09-01T11:21:39.756Z,100.00
2022-09-01T11:24:52.012Z,100.00
2022-09-01T11:28:20.067Z,100.00
2022-09-01T11:31:23.699Z,100.00
2022-09-01T11:34:25.290Z,100.00
2022-09-01T11:37:27.938Z,100.00
2022-09-01T11:40:33.553Z,100.00
2022-09-01T11:43:35.141Z,100.00
2022-09-01T11:46:36.765Z,100.00
2022-09-01T11:49:46.459Z,100.00
2022-09-01T11:52:55.213Z,100.00
2022-09-01T11:55:57.406Z,100.00
2022-09-01T11:58:58.999Z,100.00
2022-09-01T12:02:01.390Z,100.00
2022-09-01T12:05:05.118Z,100.00
2022-09-01T12:08:14.169Z,100.00
2022-09-01T12:11:20.174Z,100.00
2022-09-01T12:14:22.548Z,100.00
2022-09-01T12:17:24.731Z,100.00
2022-09-01T12:20:34.998Z,100.00
2022-09-01T12:23:47.271Z,100.00
2022-09-01T12:26:49.742Z,100.00
2022-09-01T12:29:51.480Z,100.00
2022-09-01T12:33:22.923Z,100.00
2022-09-01T12:36:27.095Z,100.00
2022-09-01T12:39:33.855Z,100.00
2022-09-01T12:42:41.560Z,100.00
2022-09-01T12:45:47.323Z,100.00
2022-09-01T12:48:49.555Z,100.00
2022-09-01T12:52:06.742Z,100.00
2022-09-01T12:55:10.380Z,100.00
2022-09-01T12:58:12.736Z,100.00
2022-09-01T13:01:24.914Z,100.00
2022-09-01T13:04:31.188Z,100.00
2022-09-01T13:07:32.765Z,100.00
2022-09-01T13:11:01.122Z,100.00
2022-09-01T13:14:02.846Z,100.00
2022-09-01T13:17:04.509Z,100.00
2022-09-01T13:20:06.702Z,100.00
2022-09-01T13:23:09.610Z,100.00
2022-09-01T13:26:11.471Z,100.00
2022-09-01T13:29:13.119Z,100.00
2022-09-01T13:32:19.022Z,100.00
2022-09-01T13:35:22.321Z,100.00
2022-09-01T13:38:24.059Z,100.00
2022-09-01T13:41:26.207Z,100.00
2022-09-01T13:44:27.866Z,100.00
2022-09-01T13:47:31.038Z,100.00
2022-09-01T13:51:14.292Z,100.00
2022-09-01T13:53:55.085Z,100.00
2022-09-01T13:56:56.751Z,100.00
2022-09-01T13:59:58.975Z,100.00
2022-09-01T14:03:03.479Z,100.00
2022-09-01T14:06:06.094Z,100.00
2022-09-01T14:09:07.936Z,100.00
2022-09-01T14:12:09.585Z,100.00
2022-09-01T14:15:15.661Z,100.00
2022-09-01T14:18:19.220Z,100.00
2022-09-01T14:21:21.410Z,100.00
2022-09-01T14:24:24.618Z,100.00
2022-09-01T14:27:26.684Z,100.00
2022-09-01T14:30:31.441Z,100.00
2022-09-01T14:33:45.221Z,100.00
2022-09-01T14:36:55.925Z,100.00
2022-09-01T14:39:57.729Z,100.00
2022-09-01T14:42:59.607Z,100.00
2022-09-01T14:46:06.665Z,100.00
2022-09-01T14:49:08.408Z,100.00
2022-09-01T14:52:11.128Z,100.00
2022-09-01T14:55:13.269Z,100.00
2022-09-01T14:58:14.925Z,100.00
2022-09-01T15:01:34.151Z,100.00
2022-09-01T15:04:36.519Z,100.00
2022-09-01T15:07:38.547Z,100.00
2022-09-01T15:10:40.189Z,100.00
2022-09-01T15:13:42.004Z,100.00
2022-09-01T15:16:43.761Z,100.00
2022-09-01T15:19:45.469Z,100.00
2022-09-01T15:22:47.809Z,100.00
2022-09-01T15:25:50.756Z,100.00
2022-09-01T15:28:52.666Z,100.00
2022-09-01T15:31:54.283Z,100.00
2022-09-01T15:34:56.331Z,100.00
2022-09-01T15:37:58.270Z,100.00
2022-09-01T15:41:01.708Z,100.00
2022-09-01T15:44:07.432Z,100.00
2022-09-01T15:47:09.053Z,100.00
2022-09-01T15:50:11.832Z,100.00
2022-09-01T15:53:22.670Z,100.00
2022-09-01T15:56:24.309Z,100.00
2022-09-01T15:59:26.442Z,100.00
2022-09-01T16:02:30.933Z,100.00
2022-09-01T16:05:33.509Z,100.00
2022-09-01T16:08:35.409Z,100.00
2022-09-01T16:11:37.387Z,100.00
2022-09-01T16:14:40.595Z,100.00
2022-09-01T16:18:01.143Z,100.00
2022-09-01T16:21:34.397Z,100.00
2022-09-01T16:24:39.237Z,100.00
2022-09-01T16:27:42.405Z,100.00
2022-09-01T16:30:50.102Z,100.00
2022-09-01T16:33:55.700Z,100.00
2022-09-01T16:37:11.849Z,100.00
2022-09-01T16:40:18.498Z,100.00
2022-09-01T16:43:29.302Z,100.00
2022-09-01T16:46:43.277Z,100.00
2022-09-01T16:50:05.361Z,100.00
2022-09-01T16:53:14.435Z,100.00
2022-09-01T16:56:25.502Z,100.00
2022-09-01T16:59:30.294Z,100.00
2022-09-01T17:02:40.624Z,100.00
2022-09-01T17:05:56.092Z,100.00
2022-09-01T17:09:07.352Z,100.00
2022-09-01T17:12:14.670Z,100.00
2022-09-01T17:15:20.500Z,100.00
2022-09-01T17:18:31.152Z,100.00
2022-09-01T17:21:54.127Z,57.18
2022-09-01T17:24:57.645Z,58.91
2022-09-01T17:27:59.497Z,59.10
2022-09-01T17:31:14.371Z,57.16
2022-09-01T17:34:28.972Z,53.72
2022-09-01T17:37:43.494Z,52.01
2022-09-01T17:40:48.363Z,51.26
2022-09-01T17:43:50.045Z,51.34
2022-09-01T17:47:00.777Z,51.55
2022-09-01T17:50:14.346Z,52.18
2022-09-01T17:53:22.168Z,52.41
2022-09-01T17:56:41.765Z,53.40
2022-09-01T17:59:45.734Z,53.56
2022-09-01T18:02:50.669Z,56.73
2022-09-01T18:05:52.304Z,59.42
2022-09-01T18:08:57.057Z,60.03
2022-09-01T18:12:03.629Z,59.98
2022-09-01T18:15:10.021Z,58.49
2022-09-01T18:18:27.052Z,59.04
2022-09-01T18:21:32.973Z,59.97
2022-09-01T18:24:42.350Z,61.93
2022-09-01T18:27:46.661Z,62.76
2022-09-01T18:31:01.908Z,62.98
2022-09-01T18:34:23.724Z,62.99
2022-09-01T18:37:37.497Z,63.97
2022-09-01T18:40:51.431Z,65.64
2022-09-01T18:44:00.496Z,66.67
2022-09-01T18:47:05.167Z,68.57
2022-09-01T18:50:09.703Z,71.03
2022-09-01T18:53:27.416Z,71.80
2022-09-01T18:56:42.525Z,72.77
2022-09-01T18:59:56.218Z,73.51
2022-09-01T19:03:04.827Z,74.29
2022-09-01T19:06:09.743Z,74.85
2022-09-01T19:09:14.498Z,76.91
2022-09-01T19:12:20.573Z,76.94
2022-09-01T19:15:22.219Z,78.22
2022-09-01T19:18:23.909Z,78.19
2022-09-01T19:21:27.197Z,81.37
2022-09-01T19:24:44.312Z,80.52
2022-09-01T19:27:49.869Z,83.46
2022-09-01T19:30:52.868Z,80.82
2022-09-01T19:34:13.548Z,80.64
2022-09-01T19:37:15.421Z,81.22
2022-09-01T19:40:24.708Z,81.15
2022-09-01T19:43:26.829Z,81.33
2022-09-01T19:46:28.745Z,82.59
2022-09-01T19:49:34.131Z,83.21
2022-09-01T19:52:43.582Z,83.18
2022-09-01T19:55:45.133Z,83.37
2022-09-01T19:58:53.361Z,84.05
2022-09-01T20:01:58.159Z,83.82
2022-09-01T20:05:06.270Z,84.51
2022-09-01T20:11:43.436Z,85.54
2022-09-01T20:14:52.139Z,87.01
2022-09-01T20:18:01.302Z,87.71
2022-09-01T20:21:05.220Z,87.44
2022-09-01T20:24:10.184Z,87.27
2022-09-01T20:27:22.368Z,87.68
2022-09-01T20:30:25.368Z,88.45
2022-09-01T20:33:32.691Z,88.20
2022-09-01T20:36:35.714Z,88.49
2022-09-01T20:39:56.066Z,88.01
2022-09-01T20:43:30.814Z,88.71
2022-09-01T20:46:32.924Z,88.14
2022-09-01T20:49:35.369Z,89.34
2022-09-01T20:52:42.990Z,89.63
2022-09-01T20:55:48.281Z,89.55
2022-09-01T20:58:54.315Z,90.05
2022-09-01T21:01:59.349Z,89.73
2022-09-01T21:05:19.896Z,90.63
2022-09-01T21:08:28.014Z,90.03
2022-09-01T21:11:38.541Z,90.47
2022-09-01T21:14:40.171Z,90.76
2022-09-01T21:17:48.325Z,89.46
2022-09-01T21:20:59.153Z,90.34
2022-09-01T21:24:00.693Z,90.73
2022-09-01T21:27:02.943Z,91.62
2022-09-01T21:30:06.257Z,90.51
2022-09-01T21:33:07.886Z,90.40
2022-09-01T21:36:09.560Z,90.52
2022-09-01T21:39:11.623Z,89.87
2022-09-01T21:42:14.918Z,90.02
2022-09-01T21:45:18.698Z,90.04
2022-09-01T21:48:20.350Z,88.66
2022-09-01T21:51:22.042Z,89.61
2022-09-01T21:54:23.613Z,89.54
2022-09-01T21:57:25.195Z,89.75
2022-09-01T22:00:28.181Z,88.55
2022-09-01T22:03:29.763Z,88.75
2022-09-01T22:06:31.830Z,89.30
2022-09-01T22:09:33.539Z,88.01
2022-09-01T22:12:36.120Z,88.63
2022-09-01T22:15:44.545Z,88.83
2022-09-01T22:18:46.358Z,88.23
2022-09-01T22:21:49.478Z,88.15
2022-09-01T22:24:51.082Z,88.41
2022-09-01T22:27:52.633Z,88.37
2022-09-01T22:30:54.324Z,87.42
2022-09-01T22:33:56.153Z,87.42
2022-09-01T22:36:57.746Z,87.73
2022-09-01T22:39:59.382Z,88.38
2022-09-01T22:43:01.065Z,87.47
2022-09-01T22:46:05.531Z,87.79
2022-09-01T22:49:07.682Z,87.60
2022-09-01T22:52:09.257Z,87.02
2022-09-01T22:55:10.972Z,87.02
2022-09-01T22:58:12.613Z,86.81
2022-09-01T23:01:15.948Z,86.40
2022-09-01T23:04:17.824Z,86.51
2022-09-01T23:07:19.459Z,85.57
2022-09-01T23:10:21.393Z,86.60
2022-09-01T23:13:23.777Z,86.19
2022-09-01T23:16:25.665Z,85.96
2022-09-01T23:19:27.309Z,85.77
2022-09-01T23:22:28.893Z,85.61
2022-09-01T23:25:30.502Z,86.56
2022-09-01T23:28:32.650Z,85.78
2022-09-01T23:31:36.083Z,85.69
2022-09-01T23:34:38.295Z,85.89
2022-09-01T23:37:39.917Z,85.81
2022-09-01T23:40:42.130Z,85.81
2022-09-01T23:43:43.824Z,85.49
2022-09-01T23:46:46.424Z,85.84
2022-09-01T23:49:48.038Z,85.91
2022-09-01T23:52:50.659Z,85.83
2022-09-01T23:55:53.361Z,85.49
2022-09-01T23:58:54.909Z,85.25
